Bei Facebook empfehlenBei Twitter postenGoogle plusPinterest

Das Wetter im Erzgebirge am 09.03.2015

Wetter und Klima am 09.03.2015 Holzhau im Erzgebirge (630m ü.NN)
Letzte gemessene Temperatur und Uhrzeit der Messung23:45:00 Uhr0.30 °C
Temperatur (Maximum / Höchstwert) und Uhrzeit der Messung14:15:00 Uhr12.80 °C
Temperatur (Minimum / Tiefstwert) und Uhrzeit der Messung22:00:00-0.70 °C
Errechneter Absolutwert der Temperaturschwankungen zwischen Tmin und Tmax des Tages13.50 K
Errechnete Tagesmitteltemperatur4.54896 °C
Gesamt - Niederschlag des Tages (in flüssiger Form)0.00 Liter / m²
Luftdruck (Maximum / Höchstwert) und Zeitpunkt der Messung19:30:00 Uhr1024.10 hPa
Luftdruck (Minimum / Tiefstwert) und Zeitpunkt der Messung03:45:00 Uhr1021.40 hPa
Errechneter Absolutwert der Luftdruckschwankungen des Tages2.70 hPa
Höchste gemessene Windgeschwindigkeit und Uhrzeit der Messung07:30:00 Uhr8.64 km/h
Errechnete Windhäufigkeit in Relation zu den Messwerten des Tages3.12500 %
Niedrigste Windkühle (Windchill) und Zeitpunkt der Messung07:30:00 Uhr-3.10 °C
Taupunkt (Maximum / Höchstwert) und Uhrzeit der Messung16:30:00 Uhr4.50 °C
Taupunkt (Minimum / Tiefstwert) und Uhrzeit der Messung03:30:00-4.50 °C
Anzahl der automatisch eingelesenen Messwerte 96

Detaillierte Wetter- und Klima- Messwerte für den 09.03.2015 in Holzhau im Erzgebirge (630m ü.NN)
ZeitTemperaturLuftdruckRel. LuftfeuchteWindWindrichtungWindchillTaupunktNiederschlag l/m²
23:45:000.30 °C1023.40 hPa83.00 %-2.20 °C 
23:30:000.30 °C1023.60 hPa84.00 %-2.10 °C 
23:15:000.10 °C1023.50 hPa86.00 %-2.00 °C 
23:00:00-0.20 °C1023.50 hPa86.00 %-2.50 °C 
22:45:000.20 °C1023.70 hPa87.00 %-1.70 °C 
22:30:000.30 °C1023.40 hPa88.00 %-1.40 °C 
22:15:00-0.20 °C1023.50 hPa88.00 %-2.10 °C 
22:00:00-0.70 °C1023.70 hPa88.00 %-2.60 °C 
21:45:00-0.70 °C1023.80 hPa88.00 %-2.60 °C 
21:30:00-0.60 °C1023.60 hPa87.00 %-2.70 °C 
21:15:00-0.20 °C1023.90 hPa87.00 %-2.30 °C 
21:00:00-0.10 °C1023.80 hPa87.00 %-2.20 °C 
20:45:000.30 °C1023.60 hPa87.00 %-1.60 °C 
20:30:000.50 °C1023.60 hPa87.00 %-1.40 °C 
20:15:000.80 °C1023.90 hPa86.00 %-1.30 °C 
20:00:001.00 °C1024.00 hPa85.00 %2.88 km/hOSO1.00 °C-1.20 °C 
19:45:001.40 °C1024.00 hPa85.00 %-0.80 °C 
19:30:001.30 °C1024.10 hPa84.00 %-1.10 °C 
19:15:001.50 °C1024.00 hPa83.00 %-1.10 °C 
19:00:002.00 °C1023.80 hPa81.00 %-0.90 °C 
18:45:002.50 °C1023.80 hPa79.00 %-0.80 °C 
18:30:003.20 °C1023.80 hPa78.00 %-0.30 °C 
18:15:003.90 °C1023.50 hPa76.00 %0.10 °C 
18:00:005.10 °C1023.30 hPa72.00 %0.50 °C 
17:45:006.40 °C1023.30 hPa70.00 %1.30 °C 
17:30:008.10 °C1023.20 hPa66.00 %2.10 °C 
17:15:009.60 °C1022.90 hPa64.00 %3.10 °C 
17:00:0010.30 °C1022.90 hPa63.00 %3.60 °C 
16:45:0011.10 °C1023.00 hPa62.00 %4.10 °C 
16:30:0011.80 °C1023.00 hPa61.00 %4.50 °C 
16:15:0011.90 °C1022.90 hPa60.00 %4.40 °C 
16:00:0012.10 °C1022.90 hPa59.00 %4.30 °C 
15:45:0012.10 °C1022.80 hPa58.00 %4.10 °C 
15:30:0011.50 °C1022.70 hPa58.00 %3.50 °C 
15:15:0011.90 °C1022.80 hPa58.00 %3.90 °C 
15:00:0012.40 °C1022.80 hPa58.00 %4.40 °C 
14:45:0012.20 °C1022.70 hPa58.00 %4.20 °C 
14:30:0012.50 °C1023.10 hPa56.00 %4.00 °C 
14:15:0012.80 °C1023.10 hPa56.00 %4.30 °C 
14:00:0012.80 °C1023.30 hPa56.00 %4.30 °C 
13:45:0012.80 °C1023.30 hPa55.00 %4.00 °C 
13:30:0012.80 °C1023.50 hPa55.00 %4.00 °C 
13:15:0012.80 °C1023.40 hPa55.00 %4.00 °C 
13:00:0012.80 °C1023.50 hPa55.00 %4.00 °C 
12:45:0012.40 °C1023.60 hPa56.00 %3.90 °C 
12:30:0011.90 °C1023.40 hPa56.00 %3.40 °C 
12:15:0011.90 °C1023.70 hPa55.00 %3.20 °C 
12:00:0011.60 °C1023.70 hPa55.00 %2.90 °C 
11:45:0011.50 °C1023.60 hPa55.00 %2.80 °C 
11:30:0011.40 °C1023.40 hPa54.00 %2.40 °C 
11:15:0011.60 °C1023.40 hPa54.00 %2.60 °C 
11:00:0011.50 °C1023.40 hPa54.00 %2.50 °C 
10:45:0011.10 °C1023.40 hPa55.00 %2.40 °C 
10:30:0010.80 °C1023.40 hPa56.00 %2.40 °C 
10:15:0010.30 °C1023.30 hPa57.00 %2.20 °C 
10:00:009.60 °C1023.20 hPa60.00 %2.20 °C 
09:45:008.40 °C1023.20 hPa66.00 %2.40 °C 
09:30:007.30 °C1023.10 hPa70.00 %2.20 °C 
09:15:005.60 °C1023.20 hPa73.00 %1.20 °C 
09:00:004.10 °C1023.00 hPa76.00 %0.30 °C 
08:45:002.80 °C1023.00 hPa77.00 %-0.80 °C 
08:30:001.60 °C1023.00 hPa79.00 %-1.60 °C 
08:15:000.70 °C1023.00 hPa79.00 %-2.50 °C 
08:00:000.10 °C1022.60 hPa79.00 %-3.10 °C 
07:45:00-0.10 °C1022.50 hPa79.00 %-3.70 °C 
07:30:00-0.10 °C1022.40 hPa78.00 %8.64 km/hOSO-3.10 °C-3.90 °C 
07:15:00-0.10 °C1022.30 hPa77.00 %-4.10 °C 
07:00:000.30 °C1022.00 hPa77.00 %-3.20 °C 
06:45:000.10 °C1022.00 hPa77.00 %3.24 km/hOSO0.10 °C-3.40 °C 
06:30:000.10 °C1022.30 hPa76.00 %-3.60 °C 
06:15:000.50 °C1022.00 hPa75.00 %-3.40 °C 
06:00:000.70 °C1021.90 hPa75.00 %-3.20 °C 
05:45:000.40 °C1022.10 hPa76.00 %-3.30 °C 
05:30:000.40 °C1022.00 hPa76.00 %-3.30 °C 
05:15:000.20 °C1021.80 hPa77.00 %-3.30 °C 
05:00:000.10 °C1021.80 hPa77.00 %-3.40 °C 
04:45:00-0.20 °C1021.70 hPa78.00 %-4.00 °C 
04:30:00-0.40 °C1021.70 hPa78.00 %-4.20 °C 
04:15:00-0.70 °C1021.50 hPa78.00 %-4.40 °C 
04:00:00-0.70 °C1021.70 hPa78.00 %-4.40 °C 
03:45:00-0.70 °C1021.40 hPa78.00 %-4.40 °C 
03:30:00-0.60 °C1021.70 hPa77.00 %-4.50 °C 
03:15:00-0.20 °C1021.60 hPa75.00 %-4.50 °C 
03:00:000.10 °C1021.60 hPa75.00 %-3.80 °C 
02:45:000.50 °C1021.70 hPa74.00 %-3.60 °C 
02:30:000.90 °C1021.70 hPa73.00 %-3.40 °C 
02:15:000.60 °C1021.80 hPa74.00 %-3.50 °C 
02:00:000.40 °C1021.80 hPa73.00 %-3.90 °C 
01:45:000.80 °C1021.90 hPa71.00 %-3.80 °C 
01:30:001.10 °C1021.90 hPa70.00 %-3.70 °C 
01:15:001.20 °C1021.70 hPa69.00 %-3.80 °C 
01:00:001.80 °C1021.80 hPa66.00 %-3.90 °C 
00:45:002.30 °C1021.60 hPa66.00 %-3.40 °C 
00:30:002.40 °C1021.70 hPa65.00 %-3.50 °C 
00:15:003.10 °C1021.70 hPa63.00 %-3.20 °C 
00:00:003.60 °C1021.70 hPa61.00 %-3.20 °C 

Permanenter Link zu dieser Seite: Wetter im Erzgebirge am 09.03.2015
Performance-Info: Die Erstellung der Seite / Statistik(en) / Tabelle(n) erforderte 5 Datenbankserver-Abfrage(n) und dauerte 96 Millisekunden. (Dieser Messwert ist von der Gesamt-Auslastung des Servers abhängig.)
Erzgebirge - Wetter | Erzgebirge - Wetter (Mobilgeräte) | Komplette Klimadatenbank